createdAt,value
2023-02-11T00:01:28.625Z,86.50
2023-02-11T00:03:57.157Z,88.53
2023-02-11T00:06:28.602Z,89.45
2023-02-11T00:08:56.585Z,88.43
2023-02-11T00:11:31.725Z,88.55
2023-02-11T00:14:01.445Z,86.45
2023-02-11T00:16:29.646Z,91.63
2023-02-11T00:18:57.332Z,89.65
2023-02-11T00:21:26.152Z,88.05
2023-02-11T00:23:55.067Z,88.57
2023-02-11T00:26:24.650Z,87.82
2023-02-11T00:28:53.483Z,89.80
2023-02-11T00:31:22.517Z,86.68
2023-02-11T00:33:49.930Z,85.43
2023-02-11T00:36:22.966Z,89.88
2023-02-11T00:38:51.290Z,91.63
2023-02-11T00:41:19.274Z,88.05
2023-02-11T00:43:46.445Z,90.65
2023-02-11T00:46:14.414Z,85.72
2023-02-11T00:48:42.071Z,90.80
2023-02-11T00:51:09.606Z,87.65
2023-02-11T00:53:36.677Z,92.07
2023-02-11T00:56:03.942Z,96.05
2023-02-11T00:58:31.565Z,88.70
2023-02-11T01:00:58.535Z,94.97
2023-02-11T01:03:31.934Z,97.05
2023-02-11T01:05:58.929Z,91.47
2023-02-11T01:08:26.256Z,93.97
2023-02-11T01:11:18.065Z,92.80
2023-02-11T01:13:45.755Z,90.72
2023-02-11T01:16:13.145Z,88.20
2023-02-11T01:18:42.259Z,89.88
2023-02-11T01:21:10.600Z,89.63
2023-02-11T01:23:37.507Z,88.00
2023-02-11T01:26:05.245Z,88.32
2023-02-11T01:28:32.942Z,90.38
2023-02-11T01:31:01.751Z,90.97
2023-02-11T01:33:28.995Z,89.30
2023-02-11T01:35:56.002Z,90.65
2023-02-11T01:38:26.541Z,85.45
2023-02-11T01:40:57.921Z,89.38
2023-02-11T01:43:26.538Z,89.35
2023-02-11T01:46:33.389Z,89.40
2023-02-11T01:49:09.251Z,84.63
2023-02-11T01:51:48.427Z,89.18
2023-02-11T01:54:39.068Z,85.40
2023-02-11T01:57:23.114Z,84.63
2023-02-11T02:00:14.551Z,87.80
2023-02-11T02:02:42.793Z,85.47
2023-02-11T02:05:24.798Z,82.05
2023-02-11T02:08:03.596Z,82.88
2023-02-11T02:10:32.348Z,87.65
2023-02-11T02:12:59.255Z,84.85
2023-02-11T02:15:30.018Z,84.97
2023-02-11T02:18:09.210Z,84.80
2023-02-11T02:20:58.010Z,88.25
2023-02-11T02:23:49.739Z,86.80
2023-02-11T02:26:38.119Z,83.32
2023-02-11T02:29:42.476Z,82.70
2023-02-11T02:32:48.480Z,83.55
2023-02-11T02:35:15.293Z,81.18
2023-02-11T02:37:48.108Z,86.50
2023-02-11T02:40:26.879Z,84.93
2023-02-11T02:42:55.445Z,85.28
2023-02-11T02:45:22.516Z,84.80
2023-02-11T02:47:49.564Z,86.53
2023-02-11T02:50:23.190Z,86.40
2023-02-11T02:53:16.173Z,85.05
2023-02-11T02:55:55.366Z,83.75
2023-02-11T02:58:40.523Z,81.85
2023-02-11T03:01:28.760Z,82.10
2023-02-11T03:04:37.473Z,82.10
2023-02-11T03:07:10.972Z,83.00
2023-02-11T03:09:51.418Z,83.38
2023-02-11T03:12:20.167Z,84.60
2023-02-11T03:14:50.340Z,85.40
2023-02-11T03:17:17.496Z,83.28
2023-02-11T03:19:48.346Z,84.32
2023-02-11T03:22:25.229Z,86.07
2023-02-11T03:24:52.136Z,84.10
2023-02-11T03:27:29.286Z,81.10
2023-02-11T03:30:14.732Z,81.93
2023-02-11T03:32:55.850Z,78.70
2023-02-11T03:35:32.877Z,80.25
2023-02-11T03:38:08.036Z,80.45
2023-02-11T03:40:41.360Z,80.20
2023-02-11T03:43:28.052Z,80.22
2023-02-11T03:45:57.284Z,79.90
2023-02-11T03:48:30.032Z,73.90
2023-02-11T03:51:00.191Z,70.30
2023-02-11T03:53:27.187Z,70.85
2023-02-11T03:55:56.923Z,70.55
2023-02-11T03:58:23.902Z,70.57
2023-02-11T04:00:50.922Z,71.13
2023-02-11T04:03:17.848Z,70.38
2023-02-11T04:05:45.199Z,69.80
2023-02-11T04:08:12.063Z,73.20
2023-02-11T04:10:38.908Z,71.53
2023-02-11T04:13:06.064Z,71.97
2023-02-11T04:15:33.175Z,72.68
2023-02-11T04:18:00.245Z,71.97
2023-02-11T04:20:27.148Z,72.75
2023-02-11T04:22:54.012Z,73.07
2023-02-11T04:25:20.889Z,71.85
2023-02-11T04:27:47.818Z,69.05
2023-02-11T04:30:14.686Z,73.20
2023-02-11T04:32:41.589Z,69.25
2023-02-11T04:35:08.523Z,69.05
2023-02-11T04:37:35.914Z,70.15
2023-02-11T04:40:03.174Z,67.90
2023-02-11T04:42:30.162Z,65.88
2023-02-11T04:44:56.978Z,66.18
2023-02-11T04:47:23.864Z,64.00
2023-02-11T04:49:50.717Z,65.88
2023-02-11T04:52:17.559Z,66.75
2023-02-11T04:54:44.482Z,67.35
2023-02-11T04:57:11.336Z,72.35
2023-02-11T04:59:38.195Z,71.57
2023-02-11T05:02:07.212Z,72.05
2023-02-11T05:04:34.198Z,74.53
2023-02-11T05:07:01.331Z,74.93
2023-02-11T05:09:28.267Z,72.60
2023-02-11T05:11:55.483Z,75.22
2023-02-11T05:14:22.326Z,76.18
2023-02-11T05:16:49.254Z,78.32
2023-02-11T05:19:16.264Z,76.07
2023-02-11T05:21:56.708Z,75.25
2023-02-11T05:24:28.511Z,71.20
2023-02-11T05:26:55.349Z,76.85
2023-02-11T05:29:22.763Z,74.65
2023-02-11T05:31:49.598Z,78.07
2023-02-11T05:34:16.478Z,77.28
2023-02-11T05:36:43.344Z,80.10
2023-02-11T05:39:10.250Z,78.18
2023-02-11T05:41:38.216Z,78.85
2023-02-11T05:44:05.235Z,80.00
2023-02-11T05:46:32.202Z,78.15
2023-02-11T05:48:59.193Z,81.20
2023-02-11T05:51:26.176Z,82.32
2023-02-11T05:53:53.584Z,81.10
2023-02-11T05:56:20.511Z,79.63
2023-02-11T05:58:47.440Z,81.20
2023-02-11T06:01:14.313Z,79.45
2023-02-11T06:03:41.408Z,80.07
2023-02-11T06:06:12.824Z,77.18
2023-02-11T06:08:40.347Z,80.35
2023-02-11T06:11:07.482Z,78.63
2023-02-11T06:13:34.646Z,77.53
2023-02-11T06:16:02.988Z,79.22
2023-02-11T06:18:30.087Z,75.90
2023-02-11T06:20:57.038Z,78.88
2023-02-11T06:23:23.990Z,78.15
2023-02-11T06:25:51.949Z,80.82
2023-02-11T06:28:19.918Z,77.32
2023-02-11T06:30:46.972Z,75.68
2023-02-11T06:33:13.910Z,78.30
2023-02-11T06:35:40.845Z,78.57
2023-02-11T06:38:07.712Z,78.03
2023-02-11T06:40:34.711Z,79.43
2023-02-11T06:43:01.633Z,80.60
2023-02-11T06:45:28.576Z,80.85
2023-02-11T06:47:55.476Z,81.38
2023-02-11T06:50:22.345Z,80.82
2023-02-11T06:52:49.378Z,77.90
2023-02-11T06:55:16.297Z,80.70
2023-02-11T06:57:43.307Z,82.75
2023-02-11T07:00:10.883Z,82.05
2023-02-11T07:02:37.769Z,82.32
2023-02-11T07:05:07.064Z,82.20
2023-02-11T07:07:34.418Z,85.53
2023-02-11T07:10:03.264Z,83.05
2023-02-11T07:12:31.164Z,83.43
2023-02-11T07:14:58.554Z,80.18
2023-02-11T07:17:25.502Z,77.00
2023-02-11T07:19:52.299Z,75.95
2023-02-11T07:22:19.268Z,76.40
2023-02-11T07:24:46.051Z,71.90
2023-02-11T07:27:13.326Z,74.75
2023-02-11T07:29:42.094Z,72.15
2023-02-11T07:32:09.093Z,71.88
2023-02-11T07:34:36.087Z,74.60
2023-02-11T07:37:03.241Z,70.35
2023-02-11T07:39:30.205Z,74.68
2023-02-11T07:41:57.142Z,73.97
2023-02-11T07:44:24.040Z,76.05
2023-02-11T07:46:51.073Z,75.80
2023-02-11T07:49:17.952Z,75.55
2023-02-11T07:51:44.979Z,73.82
2023-02-11T07:54:12.473Z,72.30
2023-02-11T07:56:39.580Z,73.47
2023-02-11T07:59:06.889Z,66.68
2023-02-11T08:01:33.832Z,66.93
2023-02-11T08:04:02.210Z,65.32
2023-02-11T08:06:32.295Z,66.93
2023-02-11T08:09:09.011Z,63.15
2023-02-11T08:11:36.296Z,63.88
2023-02-11T08:14:03.375Z,65.13
2023-02-11T08:16:33.284Z,61.60
2023-02-11T08:19:03.262Z,59.35
2023-02-11T08:21:30.146Z,61.40
2023-02-11T08:23:57.472Z,62.25
2023-02-11T08:26:27.380Z,57.38
2023-02-11T08:28:56.595Z,58.10
2023-02-11T08:31:29.699Z,57.25
2023-02-11T08:33:59.969Z,55.55
2023-02-11T08:36:30.120Z,57.38
2023-02-11T08:39:16.055Z,56.90
2023-02-11T08:41:45.614Z,55.40
2023-02-11T08:44:12.892Z,55.10
2023-02-11T08:46:39.883Z,54.17
2023-02-11T08:49:06.744Z,56.00
2023-02-11T08:51:33.804Z,54.15
2023-02-11T08:54:01.343Z,53.88
2023-02-11T08:56:29.075Z,54.38
2023-02-11T08:58:55.939Z,53.70
2023-02-11T09:01:25.989Z,53.30
2023-02-11T09:03:54.096Z,48.00
2023-02-11T09:06:22.594Z,49.55
2023-02-11T09:08:52.975Z,51.92
2023-02-11T09:13:48.425Z,48.88
2023-02-11T09:16:21.644Z,47.90
2023-02-11T09:18:49.753Z,46.55
2023-02-11T09:21:18.162Z,47.95
2023-02-11T09:23:47.898Z,45.00
2023-02-11T09:26:19.087Z,46.85
2023-02-11T09:28:46.231Z,44.72
2023-02-11T09:31:16.563Z,46.00
2023-02-11T09:33:48.035Z,43.92
2023-02-11T09:36:21.380Z,42.20
2023-02-11T09:38:49.221Z,44.67
2023-02-11T09:41:24.746Z,42.08
2023-02-11T09:43:58.096Z,40.88
2023-02-11T09:46:27.779Z,41.42
2023-02-11T09:48:56.421Z,41.92
2023-02-11T09:51:42.282Z,43.88
2023-02-11T09:54:23.609Z,44.08
2023-02-11T09:56:50.600Z,42.95
2023-02-11T09:59:17.819Z,40.38
2023-02-11T10:01:53.656Z,39.92
2023-02-11T10:05:07.954Z,39.40
2023-02-11T10:07:56.235Z,38.00
2023-02-11T10:10:52.528Z,39.03
2023-02-11T10:13:42.562Z,39.05
2023-02-11T10:16:19.050Z,40.20
2023-02-11T10:19:22.944Z,40.58
2023-02-11T10:22:00.122Z,40.72
2023-02-11T10:24:29.258Z,40.67
2023-02-11T10:26:56.102Z,38.67
2023-02-11T10:29:46.538Z,36.97
2023-02-11T10:34:56.171Z,37.05
2023-02-11T10:37:23.005Z,38.47
2023-02-11T10:39:49.833Z,38.95
2023-02-11T10:42:17.396Z,37.35
2023-02-11T10:44:59.635Z,35.45
2023-02-11T10:47:33.022Z,35.47
2023-02-11T10:50:03.856Z,35.60
2023-02-11T10:52:31.379Z,36.40
2023-02-11T10:55:17.980Z,35.50
2023-02-11T10:58:00.566Z,35.58
2023-02-11T11:00:34.300Z,34.40
2023-02-11T11:03:03.200Z,35.15
2023-02-11T11:05:32.267Z,35.67
2023-02-11T11:08:09.712Z,34.97
2023-02-11T11:10:45.327Z,37.40
2023-02-11T11:13:28.672Z,35.95
2023-02-11T11:16:15.082Z,34.15
2023-02-11T11:18:47.533Z,34.28
2023-02-11T11:21:22.833Z,30.60
2023-02-11T11:23:55.954Z,34.13
2023-02-11T11:26:25.093Z,32.58
2023-02-11T11:29:01.762Z,33.35
2023-02-11T11:31:35.444Z,29.95
2023-02-11T11:34:20.986Z,30.98
2023-02-11T11:36:48.469Z,28.80
2023-02-11T11:39:21.686Z,28.17
2023-02-11T11:41:54.544Z,29.48
2023-02-11T11:44:36.381Z,31.33
2023-02-11T11:47:12.126Z,29.92
2023-02-11T11:49:56.290Z,29.17
2023-02-11T11:53:04.583Z,29.63
2023-02-11T11:55:39.508Z,29.38
2023-02-11T11:58:13.414Z,30.15
2023-02-11T12:01:00.628Z,31.40
2023-02-11T12:03:57.344Z,30.40
2023-02-11T12:06:49.236Z,30.10
2023-02-11T12:10:04.511Z,26.70
2023-02-11T12:12:34.518Z,25.75
2023-02-11T12:15:12.195Z,28.08
2023-02-11T12:18:09.658Z,26.67
2023-02-11T12:20:36.496Z,25.73
2023-02-11T12:23:25.847Z,25.85
2023-02-11T12:26:11.136Z,28.37
2023-02-11T12:29:03.329Z,25.42
2023-02-11T12:31:49.263Z,25.42
2023-02-11T12:35:02.915Z,26.15
2023-02-11T12:37:44.323Z,25.38
2023-02-11T12:40:16.767Z,26.52
2023-02-11T12:43:09.148Z,25.23
2023-02-11T12:45:42.326Z,27.58
2023-02-11T12:48:27.948Z,25.90
2023-02-11T12:51:09.631Z,25.17
2023-02-11T12:53:36.448Z,25.63
2023-02-11T12:56:16.115Z,26.40
2023-02-11T12:58:45.791Z,27.63
2023-02-11T13:01:21.029Z,25.55
2023-02-11T13:03:54.959Z,24.00
2023-02-11T13:06:45.005Z,26.05
2023-02-11T13:09:19.186Z,27.05
2023-02-11T13:11:52.260Z,26.70
2023-02-11T13:14:35.384Z,25.92
2023-02-11T13:17:30.043Z,26.60
2023-02-11T13:20:14.420Z,24.73
2023-02-11T13:22:52.882Z,26.15
2023-02-11T13:25:30.867Z,25.77
2023-02-11T13:28:00.255Z,26.27
2023-02-11T13:30:29.655Z,26.55
2023-02-11T13:32:56.744Z,27.00
2023-02-11T13:35:38.285Z,26.73
2023-02-11T13:38:17.765Z,25.73
2023-02-11T13:40:45.720Z,27.67
2023-02-11T13:43:30.430Z,27.20
2023-02-11T13:46:11.133Z,25.85
2023-02-11T13:48:39.241Z,23.98
2023-02-11T13:51:09.234Z,25.85
2023-02-11T13:53:48.016Z,26.30
2023-02-11T13:56:42.826Z,26.33
2023-02-11T13:59:27.850Z,27.05
2023-02-11T14:02:19.198Z,26.83
2023-02-11T14:05:42.469Z,25.67
2023-02-11T14:08:31.178Z,26.58
2023-02-11T14:10:58.217Z,25.75
2023-02-11T14:13:26.651Z,27.77
2023-02-11T14:16:22.521Z,25.42
2023-02-11T14:18:55.112Z,25.40
2023-02-11T14:21:29.024Z,26.02
2023-02-11T14:24:01.620Z,27.83
2023-02-11T14:26:51.976Z,29.77
2023-02-11T14:29:36.011Z,27.73
2023-02-11T14:32:22.800Z,27.88
2023-02-11T14:35:20.863Z,26.52
2023-02-11T14:38:04.273Z,26.20
2023-02-11T14:40:49.096Z,26.08
2023-02-11T14:43:24.435Z,24.88
2023-02-11T14:45:55.345Z,25.73
2023-02-11T14:48:31.760Z,26.17
2023-02-11T14:51:20.988Z,25.67
2023-02-11T14:53:51.348Z,26.17
2023-02-11T14:56:26.458Z,25.58
2023-02-11T14:58:55.153Z,26.42
2023-02-11T15:01:33.289Z,26.42
2023-02-11T15:04:03.210Z,26.95
2023-02-11T15:06:47.817Z,25.67
2023-02-11T15:09:19.360Z,24.33
2023-02-11T15:11:49.117Z,24.83
2023-02-11T15:14:26.388Z,25.60
2023-02-11T15:16:56.457Z,28.05
2023-02-11T15:19:29.037Z,25.23
2023-02-11T15:21:57.030Z,26.23
2023-02-11T15:24:26.824Z,26.98
2023-02-11T15:26:58.256Z,27.92
2023-02-11T15:29:36.235Z,29.77
2023-02-11T15:32:24.832Z,25.98
2023-02-11T15:34:54.459Z,25.50
2023-02-11T15:37:26.795Z,26.17
2023-02-11T15:39:54.919Z,28.25
2023-02-11T15:42:26.532Z,27.75
2023-02-11T15:45:15.100Z,26.98
2023-02-11T15:47:51.134Z,28.05
2023-02-11T15:50:27.651Z,27.58
2023-02-11T15:52:56.548Z,30.10
2023-02-11T15:55:24.752Z,28.33
2023-02-11T15:57:56.391Z,28.45
2023-02-11T16:00:35.900Z,28.80
2023-02-11T16:03:03.306Z,29.80
2023-02-11T16:05:38.294Z,27.77
2023-02-11T16:08:27.137Z,27.15
2023-02-11T16:10:59.275Z,27.33
2023-02-11T16:13:28.483Z,27.83
2023-02-11T16:16:05.891Z,26.08
2023-02-11T16:18:38.965Z,25.58
2023-02-11T16:21:17.046Z,24.40
2023-02-11T16:23:51.537Z,23.95
2023-02-11T16:26:33.111Z,22.70
2023-02-11T16:29:27.723Z,23.38
2023-02-11T16:32:31.678Z,25.50
2023-02-11T16:35:01.035Z,25.27
2023-02-11T16:37:28.344Z,24.90
2023-02-11T16:39:56.610Z,24.98
2023-02-11T16:42:23.700Z,27.60
2023-02-11T16:44:50.583Z,25.13
2023-02-11T16:47:24.616Z,24.08
2023-02-11T16:49:51.941Z,24.10
2023-02-11T16:52:21.127Z,25.13
2023-02-11T16:54:48.343Z,29.57
2023-02-11T16:57:21.383Z,27.15
2023-02-11T16:59:48.946Z,32.65
2023-02-11T17:02:30.759Z,26.70
2023-02-11T17:05:03.475Z,26.63
2023-02-11T17:07:30.707Z,25.85
2023-02-11T17:09:57.566Z,28.08
2023-02-11T17:12:27.789Z,25.80
2023-02-11T17:17:23.879Z,26.98
2023-02-11T17:19:51.481Z,28.95
2023-02-11T17:22:18.867Z,25.70
2023-02-11T17:24:45.806Z,22.75
2023-02-11T17:27:13.100Z,24.27
2023-02-11T17:29:40.024Z,24.85
2023-02-11T17:32:07.007Z,24.63
2023-02-11T17:34:34.037Z,24.38
2023-02-11T17:37:03.221Z,24.95
2023-02-11T17:39:30.139Z,26.33
2023-02-11T17:41:57.035Z,25.90
2023-02-11T17:44:23.872Z,26.63
2023-02-11T17:46:50.698Z,27.63
2023-02-11T17:49:17.703Z,28.42
2023-02-11T17:51:44.558Z,33.40
2023-02-11T17:54:14.764Z,34.15
2023-02-11T17:59:10.089Z,33.13
2023-02-11T18:01:38.710Z,35.05
2023-02-11T18:04:07.734Z,36.70
2023-02-11T18:06:34.706Z,39.30
2023-02-11T18:09:04.355Z,41.85
2023-02-11T18:11:32.968Z,41.53
2023-02-11T18:14:00.676Z,43.92
2023-02-11T18:16:29.516Z,44.30
2023-02-11T18:18:57.694Z,42.95
2023-02-11T18:21:25.110Z,45.28
2023-02-11T18:23:52.565Z,46.72
2023-02-11T18:26:21.489Z,46.80
2023-02-11T18:28:48.725Z,46.63
2023-02-11T18:31:15.774Z,49.05
2023-02-11T18:33:43.284Z,46.63
2023-02-11T18:36:14.870Z,42.20
2023-02-11T18:38:44.400Z,39.55
2023-02-11T18:41:13.201Z,41.58
2023-02-11T18:43:40.596Z,40.42
2023-02-11T18:46:11.011Z,42.22
2023-02-11T18:48:38.486Z,46.97
2023-02-11T18:51:14.847Z,46.00
2023-02-11T18:53:42.504Z,45.65
2023-02-11T18:56:16.089Z,46.20
2023-02-11T18:58:43.425Z,47.13
2023-02-11T19:01:17.190Z,44.55
2023-02-11T19:03:45.015Z,47.00
2023-02-11T19:06:35.501Z,46.67
2023-02-11T19:09:06.197Z,48.13
2023-02-11T19:11:54.200Z,47.97
2023-02-11T19:14:26.964Z,47.65
2023-02-11T19:16:57.451Z,48.35
2023-02-11T19:19:27.003Z,49.22
2023-02-11T19:21:54.915Z,50.90
2023-02-11T19:24:23.100Z,55.03
2023-02-11T19:26:51.981Z,47.10
2023-02-11T19:29:19.379Z,45.92
2023-02-11T19:31:46.817Z,49.10
2023-02-11T19:34:15.860Z,51.88
2023-02-11T19:36:43.247Z,57.42
2023-02-11T19:39:10.473Z,58.72
2023-02-11T19:41:37.576Z,59.70
2023-02-11T19:44:05.552Z,58.38
2023-02-11T19:46:36.880Z,53.90
2023-02-11T19:49:04.975Z,56.67
2023-02-11T19:51:33.946Z,57.72
2023-02-11T19:54:01.227Z,55.78
2023-02-11T19:56:30.906Z,57.10
2023-02-11T19:58:58.208Z,53.75
2023-02-11T20:01:26.221Z,57.95
2023-02-11T20:03:55.257Z,54.53
2023-02-11T20:06:28.729Z,52.03
2023-02-11T20:09:01.039Z,51.95
2023-02-11T20:11:30.110Z,49.47
2023-02-11T20:13:57.278Z,46.33
2023-02-11T20:16:44.596Z,49.45
2023-02-11T20:19:17.038Z,41.60
2023-02-11T20:21:47.366Z,43.40
2023-02-11T20:24:15.517Z,43.28
2023-02-11T20:26:42.790Z,41.70
2023-02-11T20:29:10.159Z,40.97
2023-02-11T20:31:37.900Z,41.10
2023-02-11T20:34:05.054Z,40.78
2023-02-11T20:36:35.709Z,42.20
2023-02-11T20:39:05.174Z,42.28
2023-02-11T20:41:35.069Z,45.13
2023-02-11T20:44:05.226Z,46.03
2023-02-11T20:46:33.653Z,45.55
2023-02-11T20:49:01.483Z,48.05
2023-02-11T20:51:31.620Z,49.05
2023-02-11T20:53:59.984Z,48.50
2023-02-11T20:56:31.070Z,50.13
2023-02-11T20:59:00.014Z,48.75
2023-02-11T21:01:30.222Z,54.53
2023-02-11T21:06:25.924Z,56.88
2023-02-11T21:08:54.173Z,61.60
2023-02-11T21:11:21.052Z,61.63
2023-02-11T21:13:48.832Z,63.40
2023-02-11T21:16:20.543Z,64.13
2023-02-11T21:18:48.310Z,64.95
2023-02-11T21:21:15.608Z,66.35
2023-02-11T21:23:46.151Z,63.40
2023-02-11T21:26:13.622Z,62.17
2023-02-11T21:28:44.117Z,65.30
2023-02-11T21:31:20.884Z,68.50
2023-02-11T21:33:49.148Z,64.05
2023-02-11T21:36:16.330Z,67.35
2023-02-11T21:41:13.477Z,64.78
2023-02-11T21:43:49.557Z,70.53
2023-02-11T21:46:20.661Z,70.13
2023-02-11T21:48:48.597Z,72.15
2023-02-11T21:51:18.441Z,69.95
2023-02-11T21:53:47.870Z,73.30
2023-02-11T21:56:17.412Z,66.13
2023-02-11T21:58:45.995Z,70.32
2023-02-11T22:01:18.562Z,66.28
2023-02-11T22:03:46.516Z,68.32
2023-02-11T22:06:16.432Z,68.75
2023-02-11T22:08:43.616Z,70.47
2023-02-11T22:11:12.365Z,67.40
2023-02-11T22:13:40.456Z,71.40
2023-02-11T22:16:10.538Z,67.13
2023-02-11T22:21:11.116Z,66.47
2023-02-11T22:23:39.305Z,71.90
2023-02-11T22:26:10.065Z,74.38
2023-02-11T22:28:41.048Z,71.55
2023-02-11T22:31:12.881Z,74.15
2023-02-11T22:33:40.117Z,93.07
2023-02-11T22:36:19.227Z,98.22
2023-02-11T22:38:46.236Z,105.93
2023-02-11T22:41:13.699Z,99.15
2023-02-11T22:43:42.513Z,96.03
2023-02-11T22:46:13.858Z,93.43
2023-02-11T22:48:43.672Z,90.97
2023-02-11T22:51:14.197Z,89.25
2023-02-11T22:53:44.675Z,82.85
2023-02-11T22:56:15.787Z,83.53
2023-02-11T22:58:43.616Z,82.30
2023-02-11T23:01:11.319Z,80.72
2023-02-11T23:03:38.641Z,78.72
2023-02-11T23:06:06.280Z,80.15
2023-02-11T23:08:33.887Z,77.45
2023-02-11T23:11:09.156Z,78.60
2023-02-11T23:13:38.256Z,78.45
2023-02-11T23:16:07.540Z,77.05
2023-02-11T23:18:36.556Z,75.57
2023-02-11T23:21:13.642Z,76.60
2023-02-11T23:23:40.574Z,76.70
2023-02-11T23:26:14.323Z,76.13
2023-02-11T23:28:41.669Z,72.68
2023-02-11T23:31:16.030Z,74.97
2023-02-11T23:33:45.706Z,67.80
2023-02-11T23:36:15.075Z,69.88
2023-02-11T23:38:42.264Z,69.30
2023-02-11T23:41:09.959Z,66.45
2023-02-11T23:43:37.329Z,67.38
2023-02-11T23:46:05.527Z,66.03
2023-02-11T23:48:32.975Z,65.57
2023-02-11T23:50:59.814Z,66.60
2023-02-11T23:53:26.688Z,67.63
2023-02-11T23:55:53.882Z,67.05
2023-02-11T23:58:21.010Z,67.22
